Time;durP1;ratioP1;P1;durP2;ratioP2;P2;SDS_P1;SDS_P2;PMS_P1;PMS_P2;Temp;Humidity;BMP_temperature;BMP_pressure;BME280_temperature;BME280_humidity;BME280_pressure;Samples;Min_cycle;Max_cycle;Signal;HPM_P1;HPM_P2
2022/05/28 00:01:14;;;;;;;5.50;1.50;;;;;;;14.06;64.75;100777.64;107338;1250;61593;-72
2022/05/28 00:03:43;;;;;;;3.20;1.30;;;;;;;13.93;65.16;100771.94;107320;1250;73082;-77
2022/05/28 00:06:18;;;;;;;3.20;1.30;;;;;;;13.91;65.00;100771.56;107329;1250;68830;-76
2022/05/28 00:08:49;;;;;;;1.40;0.90;;;;;;;13.87;64.70;100779.44;107147;1252;69944;-76
2022/05/28 00:11:24;;;;;;;2.70;1.10;;;;;;;13.82;64.81;100799.16;107334;1250;73815;-73
2022/05/28 00:13:52;;;;;;;3.80;1.20;;;;;;;13.76;65.02;100816.98;107290;1250;61578;-77
2022/05/28 00:16:21;;;;;;;2.80;1.30;;;;;;;13.71;65.23;100836.95;107303;1250;60396;-76
2022/05/28 00:18:55;;;;;;;2.30;1.30;;;;;;;13.68;65.67;100847.74;107391;1250;73740;-75
2022/05/28 00:21:27;;;;;;;4.50;1.60;;;;;;;13.72;65.14;100849.70;107335;1250;71886;-76
2022/05/28 00:23:55;;;;;;;2.40;1.30;;;;;;;13.73;65.10;100842.39;107321;1250;70572;-80
2022/05/28 00:26:25;;;;;;;2.70;1.30;;;;;;;13.72;64.84;100846.20;107308;1250;73673;-76
2022/05/28 00:28:53;;;;;;;1.80;1.20;;;;;;;13.63;65.49;100852.73;107285;1250;62900;-76
2022/05/28 00:31:23;;;;;;;2.80;1.10;;;;;;;13.59;64.87;100858.12;107303;1250;61680;-76
2022/05/28 00:33:52;;;;;;;2.60;1.40;;;;;;;13.49;65.91;100854.55;107322;1250;73564;-73
2022/05/28 00:36:21;;;;;;;2.10;1.30;;;;;;;13.47;65.63;100858.16;107311;1250;72731;-73
2022/05/28 00:38:50;;;;;;;2.00;1.00;;;;;;;13.45;65.76;100860.11;107325;1250;71275;-74
2022/05/28 00:41:19;;;;;;;1.90;1.10;;;;;;;13.45;66.20;100856.11;107207;1250;71676;-72
2022/05/28 00:43:48;;;;;;;2.50;0.80;;;;;;;13.48;65.02;100850.05;107229;1250;60635;-74
2022/05/28 00:46:27;;;;;;;2.30;1.00;;;;;;;13.45;64.96;100854.70;107190;1250;61283;-74
2022/05/28 00:49:00;;;;;;;1.00;0.90;;;;;;;13.37;64.76;100849.08;107286;1250;70716;-76
2022/05/28 00:51:33;;;;;;;1.70;1.00;;;;;;;13.26;64.72;100849.10;107143;1250;69653;-72
2022/05/28 00:54:06;;;;;;;3.20;1.00;;;;;;;13.14;64.94;100849.17;107204;1251;68360;-73
2022/05/28 00:56:37;;;;;;;1.50;1.00;;;;;;;13.10;64.44;100845.88;107150;1250;73132;-73
2022/05/28 00:59:08;;;;;;;2.20;1.20;;;;;;;13.03;64.91;100850.42;107194;1250;61701;-73
2022/05/28 01:01:43;;;;;;;1.70;1.10;;;;;;;12.96;65.28;100844.66;107175;1250;61434;-72
2022/05/28 01:04:26;;;;;;;3.00;1.00;;;;;;;12.90;65.74;100843.73;107205;1250;73111;-72
2022/05/28 01:07:19;;;;;;;2.10;1.00;;;;;;;12.89;64.76;100841.73;108907;1250;72718;-72
2022/05/28 01:10:17;;;;;;;1.70;0.90;;;;;;;12.83;65.06;100838.00;107141;1250;70364;-73
2022/05/28 01:13:04;;;;;;;7.40;1.40;;;;;;;12.78;64.68;100833.34;107289;1250;72022;-75
2022/05/28 01:15:40;;;;;;;2.20;1.10;;;;;;;12.74;65.35;100834.36;107313;1250;61334;-74
2022/05/28 01:18:37;;;;;;;1.30;0.90;;;;;;;12.70;65.58;100828.25;107340;1250;61656;-74
2022/05/28 01:21:15;;;;;;;2.10;1.00;;;;;;;12.65;66.00;100806.56;107312;1250;72256;-73
2022/05/28 01:24:00;;;;;;;1.60;1.00;;;;;;;12.65;66.32;100799.25;107374;1250;72572;-73
2022/05/28 01:26:46;;;;;;;1.20;0.80;;;;;;;12.61;65.02;100800.08;107338;1250;68024;-74
2022/05/28 01:29:19;;;;;;;1.70;0.90;;;;;;;12.53;64.98;100797.25;107277;1250;72451;-72
2022/05/28 01:31:48;;;;;;;;;;;;;;;12.46;64.65;100796.21;107239;1250;59732;-72
2022/05/28 01:34:19;;;;;;;1.50;1.10;;;;;;;12.39;64.61;100804.81;107264;1250;58821;-72
2022/05/28 01:36:49;;;;;;;1.70;1.00;;;;;;;12.33;65.56;100804.58;107152;1250;72885;-72
2022/05/28 01:39:20;;;;;;;2.00;0.90;;;;;;;12.27;66.32;100808.06;107093;1250;70720;-74
2022/05/28 01:41:50;;;;;;;2.70;1.00;;;;;;;12.23;65.97;100812.73;107105;1249;68762;-73
2022/05/28 01:44:21;;;;;;;3.00;1.10;;;;;;;12.19;66.68;100814.21;107192;1250;73867;-73
2022/05/28 01:46:53;;;;;;;3.20;1.20;;;;;;;12.17;66.40;100808.98;107098;1250;59443;-72
2022/05/28 01:49:24;;;;;;;1.60;1.00;;;;;;;12.17;66.95;100809.51;107118;1250;60281;-71
2022/05/28 01:51:57;;;;;;;1.80;1.10;;;;;;;12.15;66.41;100807.38;107179;1250;74049;-73
2022/05/28 01:54:33;;;;;;;1.70;1.10;;;;;;;12.09;66.09;100802.95;107133;1250;69885;-73
2022/05/28 01:57:03;;;;;;;1.00;0.90;;;;;;;12.04;66.64;100793.39;107167;1250;67897;-72
2022/05/28 01:59:35;;;;;;;2.20;1.00;;;;;;;12.00;67.93;100791.27;107113;1250;72418;-72
2022/05/28 02:02:12;;;;;;;2.30;1.20;;;;;;;11.99;68.52;100788.77;106950;1250;62951;-72
2022/05/28 02:04:44;;;;;;;2.50;1.20;;;;;;;11.96;66.87;100784.27;107097;1250;60508;-73
2022/05/28 02:07:17;;;;;;;1.40;0.90;;;;;;;11.91;68.55;100777.11;107082;1250;73643;-72
2022/05/28 02:09:57;;;;;;;2.30;1.10;;;;;;;11.91;69.01;100774.70;107213;1250;71794;-72
2022/05/28 02:12:40;;;;;;;2.60;1.30;;;;;;;11.94;68.84;100770.91;107144;1250;69059;-72
2022/05/28 02:15:38;;;;;;;2.80;1.20;;;;;;;11.98;68.78;100772.04;107239;1250;72842;-72
2022/05/28 02:18:16;;;;;;;3.10;1.20;;;;;;;11.95;67.83;100773.65;107168;1250;60040;-73
2022/05/28 02:21:06;;;;;;;3.00;1.30;;;;;;;11.90;66.76;100775.25;107185;1250;61282;-75
2022/05/28 02:23:49;;;;;;;4.30;1.30;;;;;;;11.81;66.95;100777.38;107267;1250;71551;-70
2022/05/28 02:26:33;;;;;;;2.70;1.10;;;;;;;11.69;68.21;100791.86;107094;1250;70374;-72
2022/05/28 02:29:04;;;;;;;4.70;1.60;;;;;;;11.58;70.03;100798.65;106870;1249;68022;-73
2022/05/28 02:31:34;;;;;;;5.10;2.40;;;;;;;11.55;69.05;100810.73;107149;1250;72241;-73
2022/05/28 02:34:04;;;;;;;2.00;1.30;;;;;;;11.51;70.45;100819.35;107075;1250;60454;-72
2022/05/28 02:36:33;;;;;;;2.40;1.60;;;;;;;11.50;69.35;100818.41;107131;1250;61204;-74
2022/05/28 02:39:03;;;;;;;3.90;1.30;;;;;;;11.46;70.62;100816.45;107075;1250;72495;-73
2022/05/28 02:41:32;;;;;;;3.10;1.60;;;;;;;11.45;71.19;100815.26;107206;1250;71455;-73
2022/05/28 02:44:02;;;;;;;2.70;1.50;;;;;;;11.48;71.66;100819.41;107916;1248;71145;-72
2022/05/28 02:46:32;;;;;;;2.20;1.40;;;;;;;11.52;71.61;100814.23;108462;1250;71008;-72
2022/05/28 02:49:02;;;;;;;3.90;1.90;;;;;;;11.60;71.65;100811.39;107596;1249;63371;-70
2022/05/28 02:51:31;;;;;;;5.60;1.90;;;;;;;11.69;71.38;100807.94;107237;1250;61686;-76
2022/05/28 02:54:00;;;;;;;4.90;1.70;;;;;;;11.76;71.18;100800.88;107212;1250;74265;-72
2022/05/28 02:56:29;;;;;;;2.60;1.40;;;;;;;11.83;70.77;100803.90;107155;1250;72587;-73
2022/05/28 02:58:58;;;;;;;2.40;1.80;;;;;;;11.91;70.19;100816.74;107117;1251;70541;-71
2022/05/28 03:01:33;;;;;;;4.80;1.80;;;;;;;11.84;70.03;100816.92;107145;1250;73075;-71
2022/05/28 03:04:05;;;;;;;3.20;1.30;;;;;;;11.77;70.49;100816.18;107336;1250;60539;-71
2022/05/28 03:06:35;;;;;;;1.70;1.10;;;;;;;11.75;69.85;100821.27;107356;1249;58724;-70
2022/05/28 03:09:06;;;;;;;3.40;1.40;;;;;;;11.69;70.46;100825.52;107253;1250;73672;-74
2022/05/28 03:11:37;;;;;;;2.30;1.30;;;;;;;11.69;71.51;100818.89;107365;1250;70279;-72
2022/05/28 03:14:06;;;;;;;4.40;1.30;;;;;;;11.73;71.28;100823.50;107331;1250;69411;-70
2022/05/28 03:16:35;;;;;;;3.20;1.50;;;;;;;11.77;71.39;100825.09;107173;1250;74991;-68
2022/05/28 03:19:04;;;;;;;2.90;1.40;;;;;;;11.82;70.95;100826.48;107196;1250;62439;-70
2022/05/28 03:21:33;;;;;;;4.20;1.60;;;;;;;11.86;70.61;100829.80;107097;1250;60990;-71
2022/05/28 03:24:02;;;;;;;2.90;1.50;;;;;;;11.89;70.99;100825.77;107317;1249;74555;-69
2022/05/28 03:26:30;;;;;;;3.30;1.80;;;;;;;11.90;71.29;100825.73;107203;1250;72218;-69
2022/05/28 03:28:59;;;;;;;5.80;2.50;;;;;;;11.90;70.04;100822.21;107133;1250;69714;-75
2022/05/28 03:31:29;;;;;;;11.50;4.20;;;;;;;11.89;70.70;100818.60;107291;1248;70314;-70
2022/05/28 03:33:58;;;;;;;7.20;3.40;;;;;;;11.94;70.89;100813.48;107079;1250;62967;-73
2022/05/28 03:36:28;;;;;;;10.50;4.10;;;;;;;12.03;70.74;100814.07;107260;1250;61088;-73
2022/05/28 03:38:57;;;;;;;9.20;3.60;;;;;;;12.12;70.35;100817.70;108010;1250;71597;-72
2022/05/28 03:41:28;;;;;;;7.80;3.20;;;;;;;12.24;70.02;100812.63;107167;1250;70923;-73
2022/05/28 03:43:57;;;;;;;7.30;2.80;;;;;;;12.32;69.43;100805.67;107333;1250;67945;-72
2022/05/28 03:46:33;;;;;;;6.90;2.40;;;;;;;12.42;69.05;100812.08;107281;1250;74189;-75
2022/05/28 03:49:08;;;;;;;4.00;1.60;;;;;;;12.53;68.02;100822.60;107197;1250;61280;-74
2022/05/28 03:51:37;;;;;;;3.70;1.80;;;;;;;12.61;67.80;100824.91;107270;1250;58789;-70
2022/05/28 03:54:06;;;;;;;4.80;1.80;;;;;;;12.66;67.52;100822.98;107115;1250;72624;-74
2022/05/28 03:56:39;;;;;;;5.10;1.90;;;;;;;12.74;67.18;100820.54;107229;1250;72887;-74
2022/05/28 03:59:09;;;;;;;4.50;1.60;;;;;;;12.75;67.02;100818.04;107328;1250;66857;-73
2022/05/28 04:01:39;;;;;;;3.60;1.50;;;;;;;12.75;67.06;100825.73;107305;1250;71436;-72
2022/05/28 04:04:08;;;;;;;3.70;2.00;;;;;;;12.80;66.87;100831.41;107222;1250;60353;-71
2022/05/28 04:06:38;;;;;;;4.00;1.70;;;;;;;12.83;67.10;100822.81;107236;1250;58995;-71
2022/05/28 04:09:07;;;;;;;6.20;1.90;;;;;;;12.90;66.50;100810.90;107304;1250;70002;-74
2022/05/28 04:11:36;;;;;;;3.30;2.00;;;;;;;12.93;66.51;100801.74;107361;1250;70071;-75
2022/05/28 04:14:06;;;;;;;6.90;1.90;;;;;;;13.06;66.09;100797.33;107263;1250;70551;-74
2022/05/28 04:16:36;;;;;;;5.20;1.80;;;;;;;13.13;65.85;100785.10;107216;1250;71639;-71
2022/05/28 04:19:05;;;;;;;7.30;2.10;;;;;;;13.21;65.42;100763.13;106955;1250;61357;-72
2022/05/28 04:21:34;;;;;;;4.30;1.70;;;;;;;13.19;64.97;100773.20;107128;1250;61000;-73
2022/05/28 04:24:05;;;;;;;3.30;1.80;;;;;;;13.22;65.19;100792.06;107058;1250;73725;-74
2022/05/28 04:26:33;;;;;;;4.60;1.70;;;;;;;13.37;64.36;100798.67;107235;1250;71549;-74
2022/05/28 04:29:03;;;;;;;4.50;1.80;;;;;;;13.49;63.89;100791.95;107197;1250;68675;-75
2022/05/28 04:31:32;;;;;;;3.20;1.60;;;;;;;13.50;63.92;100781.48;107235;1250;73593;-73
2022/05/28 04:34:01;;;;;;;3.30;1.70;;;;;;;13.46;63.93;100788.47;107201;1250;61712;-74
2022/05/28 04:36:30;;;;;;;2.30;1.40;;;;;;;13.62;63.47;100794.17;107223;1250;61153;-75
2022/05/28 04:38:59;;;;;;;3.60;1.90;;;;;;;13.76;62.84;100792.21;107092;1250;72315;-76
2022/05/28 04:41:28;;;;;;;3.20;1.70;;;;;;;13.87;62.41;100799.99;107069;1250;69866;-75
2022/05/28 04:43:57;;;;;;;5.30;1.80;;;;;;;13.93;62.26;100810.23;107040;1250;70949;-74
2022/05/28 04:46:26;;;;;;;3.40;1.70;;;;;;;14.10;61.99;100799.41;107096;1250;73786;-73
2022/05/28 04:48:55;;;;;;;3.90;2.00;;;;;;;14.26;61.46;100789.02;107058;1250;60337;-74
2022/05/28 04:51:24;;;;;;;3.20;1.60;;;;;;;14.29;61.03;100793.18;107164;1250;60726;-73
2022/05/28 04:53:53;;;;;;;4.30;2.00;;;;;;;14.11;61.17;100797.87;107172;1250;73474;-73
2022/05/28 04:56:22;;;;;;;3.10;1.80;;;;;;;14.20;60.99;100807.61;107196;1250;72343;-72
2022/05/28 04:58:51;;;;;;;3.90;1.90;;;;;;;14.41;60.65;100807.43;107196;1250;70309;-74
2022/05/28 05:01:23;;;;;;;4.30;1.70;;;;;;;14.47;60.48;100810.18;107129;1250;74154;-72
2022/05/28 05:03:52;;;;;;;4.60;1.70;;;;;;;14.59;60.37;100817.89;107113;1250;60808;-74
2022/05/28 05:06:22;;;;;;;2.60;1.40;;;;;;;14.69;59.81;100813.25;107288;1250;61660;-73
2022/05/28 05:08:51;;;;;;;1.90;1.20;;;;;;;14.76;59.12;100796.92;107139;1250;73451;-75
2022/05/28 05:11:21;;;;;;;1.90;1.10;;;;;;;14.92;58.70;100795.59;107269;1250;72442;-76
2022/05/28 05:13:49;;;;;;;2.50;1.20;;;;;;;15.03;58.11;100793.53;106996;1249;71506;-75
2022/05/28 05:16:18;;;;;;;2.00;1.00;;;;;;;15.12;57.36;100791.95;107169;1250;73106;-73
2022/05/28 05:18:48;;;;;;;1.70;1.10;;;;;;;15.22;57.11;100802.67;107213;1250;59822;-74
2022/05/28 05:21:17;;;;;;;7.00;2.00;;;;;;;15.25;56.98;100799.76;107242;1249;59082;-74
2022/05/28 05:23:46;;;;;;;1.30;1.00;;;;;;;15.24;56.55;100793.49;107351;1250;72545;-74
2022/05/28 05:26:19;;;;;;;2.40;1.10;;;;;;;15.30;56.15;100785.77;107281;1250;70369;-73
2022/05/28 05:28:49;;;;;;;2.50;1.20;;;;;;;15.42;56.21;100789.30;107439;1250;70629;-74
2022/05/28 05:31:18;;;;;;;2.20;1.30;;;;;;;15.48;55.65;100800.63;107314;1250;71738;-73
2022/05/28 05:33:47;;;;;;;2.30;1.00;;;;;;;15.62;55.59;100809.02;107417;1250;59140;-72
2022/05/28 05:36:16;;;;;;;2.80;1.10;;;;;;;15.76;54.76;100815.48;107243;1250;58895;-72
2022/05/28 05:38:45;;;;;;;5.20;1.30;;;;;;;15.76;54.37;100814.42;107315;1250;73788;-75
2022/05/28 05:41:14;;;;;;;3.70;1.40;;;;;;;15.73;54.36;100803.70;107187;1249;69572;-72
2022/05/28 05:43:43;;;;;;;4.70;1.50;;;;;;;15.74;54.58;100800.90;107291;1249;69592;-72
2022/05/28 05:46:13;;;;;;;12.50;2.40;;;;;;;15.86;54.51;100804.52;107360;1249;74753;-72
2022/05/28 05:48:43;;;;;;;6.10;1.50;;;;;;;15.96;54.51;100801.70;107384;1249;60052;-73
2022/05/28 05:51:17;;;;;;;7.90;1.50;;;;;;;16.12;54.10;100788.23;107306;1250;61002;-73
2022/05/28 05:53:45;;;;;;;3.10;1.10;;;;;;;16.23;53.73;100793.52;107392;1250;72108;-72
2022/05/28 05:56:14;;;;;;;2.00;1.00;;;;;;;16.48;53.20;100789.72;107341;1249;70349;-72
2022/05/28 05:58:43;;;;;;;2.60;1.10;;;;;;;16.63;52.75;100787.70;107452;1250;69747;-74
2022/05/28 06:01:12;;;;;;;2.80;1.10;;;;;;;16.68;51.84;100785.16;107377;1249;72235;-73
2022/05/28 06:03:44;;;;;;;2.00;1.20;;;;;;;16.76;51.78;100785.68;108737;1248;60561;-72
2022/05/28 06:06:16;;;;;;;62.10;7.10;;;;;;;16.51;51.73;100781.15;108736;1249;61645;-75
2022/05/28 06:08:47;;;;;;;10.90;2.10;;;;;;;16.71;52.09;100777.83;107415;1250;71316;-74
2022/05/28 06:11:15;;;;;;;3.00;1.30;;;;;;;16.94;51.66;100780.15;107383;1250;71149;-73
2022/05/28 06:13:44;;;;;;;4.70;1.60;;;;;;;17.01;51.16;100779.27;107356;1249;69607;-72
2022/05/28 06:16:13;;;;;;;3.00;1.40;;;;;;;17.03;50.85;100778.46;107334;1250;72706;-73
2022/05/28 06:18:42;;;;;;;2.00;1.10;;;;;;;17.05;50.55;100777.36;107458;1249;59517;-75
2022/05/28 06:21:11;;;;;;;2.50;1.40;;;;;;;17.38;50.11;100774.56;107402;1250;60022;-75
2022/05/28 06:23:41;;;;;;;3.10;1.90;;;;;;;17.67;49.31;100769.17;107369;1250;70952;-74
2022/05/28 06:26:11;;;;;;;1.50;1.10;;;;;;;18.06;48.72;100770.52;107404;1249;70289;-73
2022/05/28 06:28:41;;;;;;;2.20;1.00;;;;;;;18.15;48.32;100772.07;107342;1250;71273;-70
2022/05/28 06:31:12;;;;;;;2.10;1.20;;;;;;;18.28;48.43;100781.21;107563;1249;71828;-74
2022/05/28 06:33:42;;;;;;;2.90;1.20;;;;;;;18.15;48.56;100776.80;107363;1250;59825;-73
2022/05/28 06:36:12;;;;;;;3.10;1.30;;;;;;;18.17;48.56;100773.46;107296;1250;61331;-73
2022/05/28 06:38:42;;;;;;;2.90;1.30;;;;;;;18.26;47.53;100771.06;107512;1249;73502;-76
2022/05/28 06:41:12;;;;;;;2.70;1.40;;;;;;;18.19;47.27;100775.31;107571;1250;62021;-75
2022/05/28 06:43:41;;;;;;;4.50;2.30;;;;;;;17.76;48.09;100783.38;107579;1250;68819;-76
2022/05/28 06:46:10;;;;;;;2.30;1.30;;;;;;;17.92;48.15;100780.04;107484;1249;72380;-75
2022/05/28 06:48:40;;;;;;;2.50;1.50;;;;;;;17.98;48.51;100784.20;107580;1250;59761;-73
2022/05/28 06:51:09;;;;;;;3.20;2.00;;;;;;;18.00;48.49;100778.67;107725;1250;59119;-70
2022/05/28 06:53:42;;;;;;;4.30;2.70;;;;;;;17.88;48.52;100780.32;107527;1248;70920;-77
2022/05/28 06:56:12;;;;;;;4.10;2.30;;;;;;;17.92;48.52;100784.83;107522;1250;72269;-70
2022/05/28 06:58:45;;;;;;;4.90;2.80;;;;;;;18.17;47.80;100778.59;107301;1250;70361;-79
2022/05/28 07:01:16;;;;;;;4.60;2.90;;;;;;;18.36;47.53;100779.09;107477;1250;72487;-78
2022/05/28 07:03:47;;;;;;;5.40;3.30;;;;;;;18.38;46.85;100784.06;107467;1249;59699;-75
2022/05/28 07:06:16;;;;;;;6.50;2.20;;;;;;;18.43;46.49;100782.92;107487;1250;61324;-75
2022/05/28 07:08:46;;;;;;;3.70;2.10;;;;;;;18.57;46.20;100784.45;107332;1251;74024;-77
2022/05/28 07:11:15;;;;;;;2.70;1.30;;;;;;;18.50;46.46;100783.08;107559;1250;71645;-75
2022/05/28 07:13:44;;;;;;;1.80;1.20;;;;;;;18.35;46.49;100781.38;107547;1250;71072;-78
2022/05/28 07:16:12;;;;;;;2.20;0.90;;;;;;;18.43;46.54;100789.90;107546;1249;74149;-75
2022/05/28 07:18:42;;;;;;;2.10;1.00;;;;;;;18.28;46.57;100785.48;107445;1250;60482;-75
2022/05/28 07:21:12;;;;;;;2.50;1.10;;;;;;;18.43;46.49;100785.86;107533;1250;60046;-70
2022/05/28 07:23:41;;;;;;;1.50;0.90;;;;;;;18.62;46.35;100783.91;107385;1250;72745;-73
2022/05/28 07:26:15;;;;;;;2.40;1.20;;;;;;;18.88;46.12;100776.42;107448;1250;72254;-71
2022/05/28 07:28:45;;;;;;;2.70;1.40;;;;;;;19.06;45.79;100778.13;107367;1251;59959;-72
2022/05/28 07:31:21;;;;;;;2.50;1.20;;;;;;;19.20;44.89;100772.27;107443;1250;62476;-68
2022/05/28 07:33:50;;;;;;;4.30;1.30;;;;;;;19.08;44.49;100766.64;107510;1250;60462;-70
2022/05/28 07:36:22;;;;;;;3.10;1.20;;;;;;;19.18;44.55;100768.84;107334;1250;61109;-71
2022/05/28 07:38:52;;;;;;;;;;;;;;;19.44;43.83;100774.29;107278;1249;62665;-71
2022/05/28 07:41:24;;;;;;;7.00;2.80;;;;;;;19.54;43.05;100768.52;107233;1250;72210;-70
2022/05/28 07:43:55;;;;;;;6.70;1.60;;;;;;;19.37;42.30;100764.89;107237;1250;62668;-71
2022/05/28 07:46:29;;;;;;;3.30;1.10;;;;;;;19.38;42.26;100766.74;107241;1250;63333;-69
2022/05/28 07:49:01;;;;;;;2.20;1.00;;;;;;;19.33;42.77;100762.02;107196;1250;60907;-69
2022/05/28 07:51:38;;;;;;;5.20;1.40;;;;;;;19.28;43.30;100761.32;107130;1250;58748;-68
2022/05/28 07:54:10;;;;;;;2.00;1.00;;;;;;;19.13;43.74;100759.20;107233;1249;72833;-67
2022/05/28 07:56:41;;;;;;;4.00;1.50;;;;;;;19.13;44.64;100748.50;107102;1250;70927;-68
2022/05/28 07:59:11;;;;;;;2.50;1.30;;;;;;;19.26;44.55;100741.83;107259;1249;59066;-70
2022/05/28 08:01:40;;;;;;;4.10;1.70;;;;;;;19.37;44.38;100744.13;107276;1250;63644;-68
2022/05/28 08:04:10;;;;;;;3.40;1.90;;;;;;;19.35;44.77;100744.70;107080;1250;59225;-69
2022/05/28 08:06:40;;;;;;;4.80;2.40;;;;;;;19.37;44.67;100739.16;107155;1250;60460;-68
2022/05/28 08:09:11;;;;;;;4.10;2.50;;;;;;;19.25;44.58;100739.57;107152;1250;72634;-65
2022/05/28 08:11:41;;;;;;;7.80;4.00;;;;;;;19.08;44.47;100742.08;107203;1250;62020;-68
2022/05/28 08:14:09;;;;;;;9.30;5.50;;;;;;;18.89;44.98;100742.73;107244;1249;69723;-68
2022/05/28 08:16:38;;;;;;;7.80;3.70;;;;;;;18.65;45.57;100752.04;107218;1250;74895;-66
2022/05/28 08:19:07;;;;;;;5.70;2.40;;;;;;;18.47;45.26;100759.91;107279;1250;60951;-70
2022/05/28 08:24:23;;;;;;;6.00;3.30;;;;;;;18.25;46.74;100767.33;107369;1248;70916;-70
2022/05/28 08:26:52;;;;;;;6.10;3.10;;;;;;;18.35;46.89;100770.86;107407;1250;60803;-69
2022/05/28 08:29:22;;;;;;;9.10;3.70;;;;;;;18.34;47.31;100766.23;107486;1250;59992;-78
2022/05/28 08:31:51;;;;;;;4.90;3.00;;;;;;;18.20;47.83;100765.48;107401;1249;72308;-78
2022/05/28 08:34:20;;;;;;;5.40;2.90;;;;;;;18.21;47.42;100768.78;107419;1249;59059;-73
2022/05/28 08:36:49;;;;;;;4.90;2.50;;;;;;;17.98;47.80;100760.55;107355;1250;60781;-74
2022/05/28 08:39:18;;;;;;;3.60;2.00;;;;;;;17.85;48.02;100754.84;107357;1250;71595;-76
2022/05/28 08:41:59;;;;;;;11.40;2.00;;;;;;;17.72;48.84;100764.43;107251;1249;72385;-73
2022/05/28 08:44:39;;;;;;;5.60;1.60;;;;;;;17.65;49.20;100768.33;107300;1250;69201;-74
2022/05/28 08:47:21;;;;;;;2.50;1.60;;;;;;;17.45;51.05;100771.23;107434;1250;72091;-74
2022/05/28 08:49:52;;;;;;;8.30;2.10;;;;;;;17.32;51.39;100775.52;107434;1250;60293;-75
2022/05/28 08:52:25;;;;;;;5.10;2.10;;;;;;;17.11;52.46;100778.50;107382;1250;59608;-77
2022/05/28 08:55:05;;;;;;;3.80;1.90;;;;;;;16.95;53.82;100778.81;107396;1249;73571;-74
2022/05/28 08:57:57;;;;;;;2.30;1.50;;;;;;;17.18;52.65;100778.63;107485;1249;72965;-74
2022/05/28 09:00:54;;;;;;;4.10;1.70;;;;;;;17.24;52.74;100778.77;107313;1250;69059;-66
2022/05/28 09:03:51;;;;;;;4.20;1.90;;;;;;;17.39;52.39;100779.56;107338;1249;71928;-66
2022/05/28 09:06:30;;;;;;;6.40;1.60;;;;;;;17.69;52.00;100776.55;107247;1250;58923;-71
2022/05/28 09:08:59;;;;;;;4.80;1.70;;;;;;;17.93;51.73;100772.16;107011;1250;659175;-68
2022/05/28 09:11:46;;;;;;;3.50;2.40;;;;;;;17.99;50.64;100773.53;107265;1250;71247;-70
2022/05/28 09:14:30;;;;;;;4.00;1.50;;;;;;;18.06;50.50;100778.13;107147;1251;69527;-75
2022/05/28 09:17:21;;;;;;;5.50;1.90;;;;;;;18.27;50.35;100773.95;107712;1249;67902;-70
2022/05/28 09:19:51;;;;;;;4.70;1.60;;;;;;;18.86;49.08;100764.11;107398;1250;74344;-71
2022/05/28 09:22:22;;;;;;;5.60;2.00;;;;;;;18.71;48.87;100766.89;107296;1250;61759;-71
2022/05/28 09:24:51;;;;;;;2.60;1.50;;;;;;;18.88;48.59;100767.07;107396;1250;61997;-69
2022/05/28 09:27:34;;;;;;;3.40;1.50;;;;;;;19.46;47.02;100766.93;107156;1251;63637;-71
2022/05/28 09:30:15;;;;;;;7.40;1.80;;;;;;;19.66;46.03;100766.74;107347;1250;60841;-69
2022/05/28 09:33:21;;;;;;;4.30;1.40;;;;;;;19.62;45.06;100764.00;107433;1249;69986;-70
2022/05/28 09:36:33;;;;;;;3.10;1.60;;;;;;;19.62;45.25;100761.55;107373;1250;62743;-68
2022/05/28 09:39:21;;;;;;;3.40;1.60;;;;;;;19.67;44.37;100763.59;107271;1249;60515;-73
2022/05/28 09:42:14;;;;;;;9.10;1.90;;;;;;;19.52;44.89;100767.06;107253;1251;59122;-72
2022/05/28 09:45:01;;;;;;;10.30;2.10;;;;;;;19.52;44.90;100755.85;107441;1250;63318;-75
2022/05/28 09:47:49;;;;;;;9.90;1.50;;;;;;;19.21;46.35;100758.86;107435;1251;61855;-74
2022/05/28 09:50:38;;;;;;;2.40;1.40;;;;;;;19.13;46.17;100766.85;107510;1250;59189;-77
2022/05/28 09:56:20;;;;;;;3.10;1.20;;;;;;;19.40;44.80;100750.67;107466;1250;59869;-72
2022/05/28 09:58:50;;;;;;;5.70;1.50;;;;;;;19.45;44.73;100750.12;107374;1249;59108;-74
2022/05/28 10:01:27;;;;;;;4.10;1.60;;;;;;;19.41;44.96;100757.94;107566;1250;63810;-77
2022/05/28 10:04:29;;;;;;;4.50;1.50;;;;;;;19.16;44.60;100758.58;107686;1250;61981;-76
2022/05/28 10:07:04;;;;;;;5.80;1.90;;;;;;;18.87;45.29;100759.09;107510;1250;60303;-70
2022/05/28 10:09:35;;;;;;;4.80;1.50;;;;;;;18.80;45.68;100755.16;107399;1250;73671;-69
2022/05/28 10:12:20;;;;;;;3.50;1.40;;;;;;;18.44;46.44;100753.89;107342;1250;61667;-68
2022/05/28 10:15:01;;;;;;;2.20;1.20;;;;;;;18.39;46.77;100747.14;107488;1250;61877;-69
2022/05/28 10:17:31;;;;;;;4.10;1.70;;;;;;;18.19;46.89;100749.48;107420;1249;74242;-66
2022/05/28 10:20:04;;;;;;;3.40;1.70;;;;;;;18.08;46.82;100737.73;107406;1250;69915;-67
2022/05/28 10:22:37;;;;;;;;;;;;;;;17.85;47.34;100737.33;107388;1250;68694;-66
2022/05/28 10:25:24;;;;;;;3.90;1.60;;;;;;;17.94;47.40;100736.48;107287;1250;73077;-68
2022/05/28 10:27:54;;;;;;;3.50;1.70;;;;;;;17.90;48.02;100738.64;107316;1250;59057;-67
2022/05/28 10:30:26;;;;;;;4.50;1.70;;;;;;;17.91;48.12;100745.49;107506;1250;60041;-64
2022/05/28 10:32:55;;;;;;;2.80;1.50;;;;;;;18.08;47.45;100748.64;107336;1250;73436;-64
2022/05/28 10:35:28;;;;;;;3.20;1.20;;;;;;;18.21;46.69;100742.84;107552;1250;70190;-66
2022/05/28 10:38:21;;;;;;;2.50;1.10;;;;;;;18.46;45.94;100738.70;107331;1250;70520;-66
2022/05/28 10:41:00;;;;;;;2.30;1.30;;;;;;;18.59;45.35;100738.73;107410;1250;62997;-66
2022/05/28 10:43:38;;;;;;;4.60;1.80;;;;;;;18.55;45.14;100743.02;107387;1249;59076;-68
2022/05/28 10:46:48;;;;;;;3.00;1.30;;;;;;;18.42;45.14;100743.09;107261;1250;59704;-67
2022/05/28 10:49:31;;;;;;;2.90;1.20;;;;;;;18.23;45.53;100738.81;107303;1248;63496;-69
2022/05/28 10:52:34;;;;;;;2.80;1.60;;;;;;;17.96;46.96;100743.72;107355;1250;72167;-68
2022/05/28 10:55:23;;;;;;;2.10;1.30;;;;;;;17.92;47.56;100741.48;106894;1251;60388;-68
2022/05/28 10:58:37;;;;;;;2.60;1.30;;;;;;;17.78;48.20;100739.03;107174;1250;73872;-68
2022/05/28 11:01:44;;;;;;;3.50;1.60;;;;;;;17.74;47.70;100727.31;107404;1249;59346;-70
2022/05/28 11:04:25;;;;;;;2.20;1.10;;;;;;;17.72;47.54;100728.37;107472;1250;59491;-67
2022/05/28 11:07:32;;;;;;;2.60;1.20;;;;;;;17.84;46.72;100730.33;107543;1250;71992;-66
2022/05/28 11:10:16;;;;;;;3.90;1.60;;;;;;;17.74;46.79;100722.83;107280;1250;70720;-68
2022/05/28 11:13:28;;;;;;;3.30;1.40;;;;;;;17.66;47.26;100723.72;107196;1250;68410;-69
2022/05/28 11:16:22;;;;;;;3.50;1.60;;;;;;;17.50;47.24;100721.80;107338;1250;74658;-69
2022/05/28 11:19:09;;;;;;;3.10;1.60;;;;;;;17.47;46.86;100722.21;107263;1250;59308;-70
2022/05/28 11:22:05;;;;;;;4.70;1.70;;;;;;;17.30;47.41;100717.35;107348;1250;59598;-69
2022/05/28 11:24:58;;;;;;;3.50;1.20;;;;;;;17.34;48.09;100710.73;107229;1250;71621;-66
2022/05/28 11:28:15;;;;;;;2.70;1.50;;;;;;;17.42;48.61;100703.80;107319;1250;70264;-70
2022/05/28 11:30:49;;;;;;;2.60;1.50;;;;;;;17.34;47.88;100706.35;107108;1250;67952;-71
2022/05/28 11:33:35;;;;;;;4.20;1.50;;;;;;;17.43;47.70;100716.29;107431;1250;71126;-72
2022/05/28 11:36:40;;;;;;;2.70;1.60;;;;;;;17.40;46.86;100706.75;107286;1250;61329;-70
2022/05/28 11:39:36;;;;;;;4.90;1.50;;;;;;;17.30;47.05;100703.28;107383;1250;61517;-70
2022/05/28 11:42:31;;;;;;;4.30;1.40;;;;;;;17.30;47.21;100698.08;107247;1249;72479;-71
2022/05/28 11:45:06;;;;;;;4.70;1.50;;;;;;;17.24;47.75;100697.28;107456;1250;71187;-71
2022/05/28 11:48:00;;;;;;;3.60;1.60;;;;;;;17.27;48.07;100690.01;107348;1250;67888;-70
2022/05/28 11:53:44;;;;;;;4.30;2.00;;;;;;;17.36;47.13;100702.64;107418;1250;61188;-70
2022/05/28 11:56:22;;;;;;;3.80;1.80;;;;;;;17.42;47.57;100696.86;107627;1250;61565;-72
2022/05/28 11:59:19;;;;;;;5.20;2.30;;;;;;;17.21;48.23;100703.36;107613;1250;74030;-72
2022/05/28 12:01:53;;;;;;;7.20;3.30;;;;;;;17.39;48.42;100695.83;107446;1249;72675;-76